KVTN/VTN METAR and TAF weather

Enter ICAO airport designator
Station Type Date Time Source
KVTN METAR 2022/12/04 03:52 UTC NOAA

KVTN 040352Z AUTO 24007KT 10SM CLR M07/M10 A3013 RMK AO2 SLP242 T10671100


Station Type Date Time Source
KVTN Decoded METAR 2022/12/04 03:52 UTC NOAA

MILLER FIELD - VALENTINE, NE, NE, United States (KVTN) 42-52N 100-33W 788M
Dec 03, 2022 - 10:52 PM EST / 2022.12.04 0352 UTC
Wind: from the WSW (240 degrees) at 8 MPH (7 KT):0
Visibility: 10 mile(s):0
Sky conditions: clear
Temperature: 19.9 F (-6.7 C)
Windchill: 10 F (-12 C):1
Dew Point: 14.0 F (-10.0 C)
Relative Humidity: 77%
Pressure (altimeter): 30.13 in. Hg (1020 hPa)
ob: KVTN 040352Z AUTO 24007KT 10SM CLR M07/M10 A3013 RMK AO2 SLP242 T10671100
cycle: 4

Station Type Date Time Source
KVTN TAF 2022/12/03 18:22 UTC NOAA

TAF KVTN 031720Z 0318/0418 23015G25KT P6SM SCT250
FM032200 26009KT P6SM BKN200
FM040300 VRB03KT P6SM BKN180

Example: see airport list